sensor_id;sensor_type;location;lat;lon;timestamp;P1;durP1;ratioP1;P2;durP2;ratioP2
25419;SDS011;13354;48.174;11.566;2024-03-02T00:02:07;10.45;;;9.35;;
25419;SDS011;13354;48.174;11.566;2024-03-02T00:04:33;12.68;;;9.52;;
25419;SDS011;13354;48.174;11.566;2024-03-02T00:06:58;11.30;;;9.90;;
25419;SDS011;13354;48.174;11.566;2024-03-02T00:09:24;12.23;;;9.43;;
25419;SDS011;13354;48.174;11.566;2024-03-02T00:11:50;11.25;;;9.75;;
25419;SDS011;13354;48.174;11.566;2024-03-02T00:14:16;10.73;;;9.27;;
25419;SDS011;13354;48.174;11.566;2024-03-02T00:16:41;10.48;;;9.23;;
25419;SDS011;13354;48.174;11.566;2024-03-02T00:19:07;11.15;;;9.10;;
25419;SDS011;13354;48.174;11.566;2024-03-02T00:21:34;12.05;;;10.05;;
25419;SDS011;13354;48.174;11.566;2024-03-02T00:24:00;11.77;;;9.90;;
25419;SDS011;13354;48.174;11.566;2024-03-02T00:26:31;12.38;;;9.98;;
25419;SDS011;13354;48.174;11.566;2024-03-02T00:28:56;12.18;;;10.05;;
25419;SDS011;13354;48.174;11.566;2024-03-02T00:31:22;12.55;;;10.07;;
25419;SDS011;13354;48.174;11.566;2024-03-02T00:33:48;10.23;;;9.23;;
25419;SDS011;13354;48.174;11.566;2024-03-02T00:36:14;13.65;;;10.30;;
25419;SDS011;13354;48.174;11.566;2024-03-02T00:41:21;10.45;;;9.20;;
25419;SDS011;13354;48.174;11.566;2024-03-02T00:43:57;12.68;;;9.82;;
25419;SDS011;13354;48.174;11.566;2024-03-02T00:46:23;12.02;;;9.90;;
25419;SDS011;13354;48.174;11.566;2024-03-02T00:48:55;11.15;;;9.45;;
25419;SDS011;13354;48.174;11.566;2024-03-02T00:51:25;12.75;;;10.20;;
25419;SDS011;13354;48.174;11.566;2024-03-02T00:53:54;11.93;;;10.48;;
25419;SDS011;13354;48.174;11.566;2024-03-02T00:56:21;13.05;;;10.90;;
25419;SDS011;13354;48.174;11.566;2024-03-02T00:58:47;12.90;;;10.68;;
25419;SDS011;13354;48.174;11.566;2024-03-02T01:01:13;12.25;;;10.57;;
25419;SDS011;13354;48.174;11.566;2024-03-02T01:03:39;12.82;;;10.85;;
25419;SDS011;13354;48.174;11.566;2024-03-02T01:06:06;15.77;;;11.40;;
25419;SDS011;13354;48.174;11.566;2024-03-02T01:08:32;14.23;;;10.93;;
25419;SDS011;13354;48.174;11.566;2024-03-02T01:10:58;11.73;;;10.02;;
25419;SDS011;13354;48.174;11.566;2024-03-02T01:13:23;13.35;;;10.20;;
25419;SDS011;13354;48.174;11.566;2024-03-02T01:15:49;11.43;;;9.93;;
25419;SDS011;13354;48.174;11.566;2024-03-02T01:18:14;11.02;;;9.80;;
25419;SDS011;13354;48.174;11.566;2024-03-02T01:20:39;12.27;;;10.25;;
25419;SDS011;13354;48.174;11.566;2024-03-02T01:23:05;11.60;;;9.57;;
25419;SDS011;13354;48.174;11.566;2024-03-02T01:25:30;10.93;;;9.55;;
25419;SDS011;13354;48.174;11.566;2024-03-02T01:27:56;12.60;;;9.50;;
25419;SDS011;13354;48.174;11.566;2024-03-02T01:30:21;12.52;;;10.18;;
25419;SDS011;13354;48.174;11.566;2024-03-02T01:32:46;12.18;;;9.73;;
25419;SDS011;13354;48.174;11.566;2024-03-02T01:35:12;12.55;;;10.25;;
25419;SDS011;13354;48.174;11.566;2024-03-02T01:37:37;13.88;;;10.63;;
25419;SDS011;13354;48.174;11.566;2024-03-02T01:40:03;12.18;;;10.35;;
25419;SDS011;13354;48.174;11.566;2024-03-02T01:42:34;12.10;;;10.23;;
25419;SDS011;13354;48.174;11.566;2024-03-02T01:45:03;11.73;;;10.23;;
25419;SDS011;13354;48.174;11.566;2024-03-02T01:47:30;14.45;;;10.57;;
25419;SDS011;13354;48.174;11.566;2024-03-02T01:49:55;13.02;;;11.02;;
25419;SDS011;13354;48.174;11.566;2024-03-02T01:52:21;12.75;;;10.75;;
25419;SDS011;13354;48.174;11.566;2024-03-02T01:54:46;13.20;;;10.75;;
25419;SDS011;13354;48.174;11.566;2024-03-02T01:57:11;11.73;;;10.02;;
25419;SDS011;13354;48.174;11.566;2024-03-02T01:59:37;12.30;;;10.95;;
25419;SDS011;13354;48.174;11.566;2024-03-02T02:02:02;14.48;;;10.32;;
25419;SDS011;13354;48.174;11.566;2024-03-02T02:04:27;11.25;;;10.05;;
25419;SDS011;13354;48.174;11.566;2024-03-02T02:06:53;13.13;;;10.77;;
25419;SDS011;13354;48.174;11.566;2024-03-02T02:09:19;12.00;;;10.77;;
25419;SDS011;13354;48.174;11.566;2024-03-02T02:11:44;11.38;;;10.18;;
25419;SDS011;13354;48.174;11.566;2024-03-02T02:14:10;12.05;;;10.73;;
25419;SDS011;13354;48.174;11.566;2024-03-02T02:16:36;12.75;;;10.73;;
25419;SDS011;13354;48.174;11.566;2024-03-02T02:19:01;13.85;;;11.02;;
25419;SDS011;13354;48.174;11.566;2024-03-02T02:21:28;13.63;;;10.98;;
25419;SDS011;13354;48.174;11.566;2024-03-02T02:23:53;12.20;;;10.88;;
25419;SDS011;13354;48.174;11.566;2024-03-02T02:26:18;13.70;;;10.80;;
25419;SDS011;13354;48.174;11.566;2024-03-02T02:28:44;11.07;;;9.88;;
25419;SDS011;13354;48.174;11.566;2024-03-02T02:31:12;13.05;;;10.48;;
25419;SDS011;13354;48.174;11.566;2024-03-02T02:33:41;11.13;;;9.63;;
25419;SDS011;13354;48.174;11.566;2024-03-02T02:36:07;12.65;;;10.05;;
25419;SDS011;13354;48.174;11.566;2024-03-02T02:38:36;11.63;;;9.63;;
25419;SDS011;13354;48.174;11.566;2024-03-02T02:41:09;11.90;;;10.40;;
25419;SDS011;13354;48.174;11.566;2024-03-02T02:43:35;13.27;;;9.75;;
25419;SDS011;13354;48.174;11.566;2024-03-02T02:46:00;12.25;;;9.80;;
25419;SDS011;13354;48.174;11.566;2024-03-02T02:48:25;13.05;;;9.23;;
25419;SDS011;13354;48.174;11.566;2024-03-02T02:50:51;11.15;;;9.45;;
25419;SDS011;13354;48.174;11.566;2024-03-02T02:53:16;10.65;;;8.90;;
25419;SDS011;13354;48.174;11.566;2024-03-02T02:55:42;10.52;;;9.15;;
25419;SDS011;13354;48.174;11.566;2024-03-02T02:58:11;11.65;;;9.68;;
25419;SDS011;13354;48.174;11.566;2024-03-02T03:00:37;10.43;;;8.85;;
25419;SDS011;13354;48.174;11.566;2024-03-02T03:03:02;10.45;;;8.98;;
25419;SDS011;13354;48.174;11.566;2024-03-02T03:05:28;10.88;;;9.38;;
25419;SDS011;13354;48.174;11.566;2024-03-02T03:07:54;10.35;;;8.95;;
25419;SDS011;13354;48.174;11.566;2024-03-02T03:10:19;15.65;;;9.70;;
25419;SDS011;13354;48.174;11.566;2024-03-02T03:12:47;11.10;;;9.18;;
25419;SDS011;13354;48.174;11.566;2024-03-02T03:15:12;11.23;;;9.27;;
25419;SDS011;13354;48.174;11.566;2024-03-02T03:17:39;10.43;;;9.32;;
25419;SDS011;13354;48.174;11.566;2024-03-02T03:20:05;13.00;;;9.60;;
25419;SDS011;13354;48.174;11.566;2024-03-02T03:22:35;11.35;;;9.38;;
25419;SDS011;13354;48.174;11.566;2024-03-02T03:25:00;11.85;;;9.70;;
25419;SDS011;13354;48.174;11.566;2024-03-02T03:27:26;11.88;;;10.18;;
25419;SDS011;13354;48.174;11.566;2024-03-02T03:29:52;11.07;;;9.35;;
25419;SDS011;13354;48.174;11.566;2024-03-02T03:32:17;11.57;;;9.27;;
25419;SDS011;13354;48.174;11.566;2024-03-02T03:34:42;11.75;;;8.95;;
25419;SDS011;13354;48.174;11.566;2024-03-02T03:37:08;10.68;;;9.57;;
25419;SDS011;13354;48.174;11.566;2024-03-02T03:39:34;10.43;;;9.32;;
25419;SDS011;13354;48.174;11.566;2024-03-02T03:42:01;10.73;;;9.52;;
25419;SDS011;13354;48.174;11.566;2024-03-02T03:44:26;10.55;;;9.45;;
25419;SDS011;13354;48.174;11.566;2024-03-02T03:46:51;11.52;;;9.70;;
25419;SDS011;13354;48.174;11.566;2024-03-02T03:49:17;10.55;;;9.20;;
25419;SDS011;13354;48.174;11.566;2024-03-02T03:51:42;12.45;;;10.32;;
25419;SDS011;13354;48.174;11.566;2024-03-02T03:54:07;10.70;;;9.60;;
25419;SDS011;13354;48.174;11.566;2024-03-02T03:56:33;14.35;;;10.20;;
25419;SDS011;13354;48.174;11.566;2024-03-02T03:58:58;11.38;;;10.10;;
25419;SDS011;13354;48.174;11.566;2024-03-02T04:01:24;11.75;;;10.48;;
25419;SDS011;13354;48.174;11.566;2024-03-02T04:03:50;13.02;;;10.73;;
25419;SDS011;13354;48.174;11.566;2024-03-02T04:06:15;14.07;;;10.73;;
25419;SDS011;13354;48.174;11.566;2024-03-02T04:08:42;13.43;;;11.63;;
25419;SDS011;13354;48.174;11.566;2024-03-02T04:11:08;12.77;;;11.38;;
25419;SDS011;13354;48.174;11.566;2024-03-02T04:13:33;14.02;;;11.40;;
25419;SDS011;13354;48.174;11.566;2024-03-02T04:15:59;12.90;;;11.48;;
25419;SDS011;13354;48.174;11.566;2024-03-02T04:18:24;13.88;;;11.75;;
25419;SDS011;13354;48.174;11.566;2024-03-02T04:20:49;15.05;;;11.93;;
25419;SDS011;13354;48.174;11.566;2024-03-02T04:23:15;13.93;;;11.75;;
25419;SDS011;13354;48.174;11.566;2024-03-02T04:25:40;15.68;;;12.05;;
25419;SDS011;13354;48.174;11.566;2024-03-02T04:28:06;15.20;;;12.38;;
25419;SDS011;13354;48.174;11.566;2024-03-02T04:30:31;13.43;;;11.40;;
25419;SDS011;13354;48.174;11.566;2024-03-02T04:32:56;14.25;;;12.75;;
25419;SDS011;13354;48.174;11.566;2024-03-02T04:35:22;16.55;;;12.68;;
25419;SDS011;13354;48.174;11.566;2024-03-02T04:37:47;15.05;;;12.30;;
25419;SDS011;13354;48.174;11.566;2024-03-02T04:40:12;14.75;;;12.25;;
25419;SDS011;13354;48.174;11.566;2024-03-02T04:42:38;17.05;;;12.85;;
25419;SDS011;13354;48.174;11.566;2024-03-02T04:45:03;17.52;;;13.68;;
25419;SDS011;13354;48.174;11.566;2024-03-02T04:47:29;16.85;;;13.48;;
25419;SDS011;13354;48.174;11.566;2024-03-02T04:49:54;19.02;;;14.27;;
25419;SDS011;13354;48.174;11.566;2024-03-02T04:52:20;18.10;;;13.75;;
25419;SDS011;13354;48.174;11.566;2024-03-02T04:54:45;16.98;;;13.82;;
25419;SDS011;13354;48.174;11.566;2024-03-02T04:57:33;18.20;;;14.73;;
25419;SDS011;13354;48.174;11.566;2024-03-02T04:59:59;17.48;;;13.57;;
25419;SDS011;13354;48.174;11.566;2024-03-02T05:02:24;18.00;;;14.38;;
25419;SDS011;13354;48.174;11.566;2024-03-02T05:04:49;15.98;;;14.13;;
25419;SDS011;13354;48.174;11.566;2024-03-02T05:07:15;15.35;;;12.57;;
25419;SDS011;13354;48.174;11.566;2024-03-02T05:09:41;15.68;;;13.07;;
25419;SDS011;13354;48.174;11.566;2024-03-02T05:12:07;18.27;;;13.45;;
25419;SDS011;13354;48.174;11.566;2024-03-02T05:14:38;16.95;;;13.90;;
25419;SDS011;13354;48.174;11.566;2024-03-02T05:17:03;17.35;;;12.52;;
25419;SDS011;13354;48.174;11.566;2024-03-02T05:19:29;16.55;;;13.05;;
25419;SDS011;13354;48.174;11.566;2024-03-02T05:21:54;17.17;;;13.38;;
25419;SDS011;13354;48.174;11.566;2024-03-02T05:24:20;17.15;;;13.43;;
25419;SDS011;13354;48.174;11.566;2024-03-02T05:26:45;18.55;;;13.73;;
25419;SDS011;13354;48.174;11.566;2024-03-02T05:29:10;17.20;;;13.82;;
25419;SDS011;13354;48.174;11.566;2024-03-02T05:31:35;18.15;;;13.52;;
25419;SDS011;13354;48.174;11.566;2024-03-02T05:34:01;17.42;;;13.55;;
25419;SDS011;13354;48.174;11.566;2024-03-02T05:36:26;15.98;;;13.20;;
25419;SDS011;13354;48.174;11.566;2024-03-02T05:38:52;15.18;;;13.23;;
25419;SDS011;13354;48.174;11.566;2024-03-02T05:41:17;15.43;;;13.52;;
25419;SDS011;13354;48.174;11.566;2024-03-02T05:43:43;15.88;;;13.20;;
25419;SDS011;13354;48.174;11.566;2024-03-02T05:46:08;15.23;;;13.27;;
25419;SDS011;13354;48.174;11.566;2024-03-02T05:48:33;14.48;;;12.40;;
25419;SDS011;13354;48.174;11.566;2024-03-02T05:50:59;15.57;;;12.68;;
25419;SDS011;13354;48.174;11.566;2024-03-02T05:53:24;15.02;;;11.88;;
25419;SDS011;13354;48.174;11.566;2024-03-02T05:55:50;15.30;;;12.95;;
25419;SDS011;13354;48.174;11.566;2024-03-02T05:58:20;17.02;;;12.68;;
25419;SDS011;13354;48.174;11.566;2024-03-02T06:01:04;14.85;;;12.70;;
25419;SDS011;13354;48.174;11.566;2024-03-02T06:03:30;18.50;;;13.35;;
25419;SDS011;13354;48.174;11.566;2024-03-02T06:05:56;16.85;;;13.32;;
25419;SDS011;13354;48.174;11.566;2024-03-02T06:08:21;15.32;;;13.13;;
25419;SDS011;13354;48.174;11.566;2024-03-02T06:10:46;17.17;;;13.35;;
25419;SDS011;13354;48.174;11.566;2024-03-02T06:13:12;15.25;;;13.00;;
25419;SDS011;13354;48.174;11.566;2024-03-02T06:15:37;17.08;;;12.90;;
25419;SDS011;13354;48.174;11.566;2024-03-02T06:18:03;18.40;;;13.60;;
25419;SDS011;13354;48.174;11.566;2024-03-02T06:20:28;16.15;;;13.13;;
25419;SDS011;13354;48.174;11.566;2024-03-02T06:22:56;17.23;;;13.85;;
25419;SDS011;13354;48.174;11.566;2024-03-02T06:25:21;17.63;;;13.68;;
25419;SDS011;13354;48.174;11.566;2024-03-02T06:27:46;16.73;;;13.50;;
25419;SDS011;13354;48.174;11.566;2024-03-02T06:30:12;17.50;;;14.45;;
25419;SDS011;13354;48.174;11.566;2024-03-02T06:32:37;18.13;;;14.90;;
25419;SDS011;13354;48.174;11.566;2024-03-02T06:35:03;17.70;;;14.10;;
25419;SDS011;13354;48.174;11.566;2024-03-02T06:37:30;17.50;;;14.65;;
25419;SDS011;13354;48.174;11.566;2024-03-02T06:39:56;19.35;;;14.45;;
25419;SDS011;13354;48.174;11.566;2024-03-02T06:42:21;15.73;;;13.50;;
25419;SDS011;13354;48.174;11.566;2024-03-02T06:44:46;17.17;;;14.23;;
25419;SDS011;13354;48.174;11.566;2024-03-02T06:47:12;17.58;;;14.38;;
25419;SDS011;13354;48.174;11.566;2024-03-02T06:49:37;18.27;;;15.10;;
25419;SDS011;13354;48.174;11.566;2024-03-02T06:52:02;17.65;;;14.55;;
25419;SDS011;13354;48.174;11.566;2024-03-02T06:54:28;20.05;;;15.10;;
25419;SDS011;13354;48.174;11.566;2024-03-02T06:56:53;18.77;;;15.05;;
25419;SDS011;13354;48.174;11.566;2024-03-02T06:59:19;18.95;;;14.75;;
25419;SDS011;13354;48.174;11.566;2024-03-02T07:01:44;18.70;;;14.63;;
25419;SDS011;13354;48.174;11.566;2024-03-02T07:04:09;21.17;;;14.93;;
25419;SDS011;13354;48.174;11.566;2024-03-02T07:06:35;19.58;;;15.02;;
25419;SDS011;13354;48.174;11.566;2024-03-02T07:09:00;20.27;;;14.90;;
25419;SDS011;13354;48.174;11.566;2024-03-02T07:11:25;19.63;;;14.90;;
25419;SDS011;13354;48.174;11.566;2024-03-02T07:13:50;19.05;;;15.63;;
25419;SDS011;13354;48.174;11.566;2024-03-02T07:16:16;20.52;;;15.13;;
25419;SDS011;13354;48.174;11.566;2024-03-02T07:18:52;17.98;;;14.63;;
25419;SDS011;13354;48.174;11.566;2024-03-02T07:21:20;18.33;;;15.07;;
25419;SDS011;13354;48.174;11.566;2024-03-02T07:23:47;20.13;;;16.25;;
25419;SDS011;13354;48.174;11.566;2024-03-02T07:26:12;21.92;;;16.70;;
25419;SDS011;13354;48.174;11.566;2024-03-02T07:28:40;19.58;;;16.25;;
25419;SDS011;13354;48.174;11.566;2024-03-02T07:31:05;20.70;;;15.80;;
25419;SDS011;13354;48.174;11.566;2024-03-02T07:33:31;18.40;;;15.30;;
25419;SDS011;13354;48.174;11.566;2024-03-02T07:35:57;20.48;;;16.27;;
25419;SDS011;13354;48.174;11.566;2024-03-02T07:38:24;19.17;;;16.48;;
25419;SDS011;13354;48.174;11.566;2024-03-02T07:40:50;19.90;;;15.80;;
25419;SDS011;13354;48.174;11.566;2024-03-02T07:43:19;18.33;;;14.90;;
25419;SDS011;13354;48.174;11.566;2024-03-02T07:45:45;18.55;;;14.85;;
25419;SDS011;13354;48.174;11.566;2024-03-02T07:48:11;18.30;;;15.18;;
25419;SDS011;13354;48.174;11.566;2024-03-02T07:50:37;20.45;;;16.10;;
25419;SDS011;13354;48.174;11.566;2024-03-02T07:53:04;21.23;;;16.08;;
25419;SDS011;13354;48.174;11.566;2024-03-02T07:55:30;21.20;;;16.02;;
25419;SDS011;13354;48.174;11.566;2024-03-02T07:57:56;21.77;;;16.42;;
25419;SDS011;13354;48.174;11.566;2024-03-02T08:00:22;21.95;;;16.67;;
25419;SDS011;13354;48.174;11.566;2024-03-02T08:02:48;19.33;;;15.35;;
25419;SDS011;13354;48.174;11.566;2024-03-02T08:05:15;20.40;;;15.93;;
25419;SDS011;13354;48.174;11.566;2024-03-02T08:07:41;21.40;;;14.77;;
25419;SDS011;13354;48.174;11.566;2024-03-02T08:10:07;20.02;;;14.80;;
25419;SDS011;13354;48.174;11.566;2024-03-02T08:12:32;19.77;;;14.82;;
25419;SDS011;13354;48.174;11.566;2024-03-02T08:14:58;17.05;;;13.65;;
25419;SDS011;13354;48.174;11.566;2024-03-02T08:17:23;17.08;;;13.15;;
25419;SDS011;13354;48.174;11.566;2024-03-02T08:19:48;17.08;;;13.07;;
25419;SDS011;13354;48.174;11.566;2024-03-02T08:22:14;18.45;;;13.43;;
25419;SDS011;13354;48.174;11.566;2024-03-02T08:24:40;16.73;;;12.70;;
25419;SDS011;13354;48.174;11.566;2024-03-02T08:27:06;16.13;;;12.02;;
25419;SDS011;13354;48.174;11.566;2024-03-02T08:29:31;14.55;;;11.48;;
25419;SDS011;13354;48.174;11.566;2024-03-02T08:31:57;15.57;;;11.68;;
25419;SDS011;13354;48.174;11.566;2024-03-02T08:34:22;16.77;;;12.15;;
25419;SDS011;13354;48.174;11.566;2024-03-02T08:36:47;15.52;;;12.18;;
25419;SDS011;13354;48.174;11.566;2024-03-02T08:39:13;13.75;;;10.43;;
25419;SDS011;13354;48.174;11.566;2024-03-02T08:41:40;13.20;;;10.02;;
25419;SDS011;13354;48.174;11.566;2024-03-02T08:44:07;12.98;;;10.32;;
25419;SDS011;13354;48.174;11.566;2024-03-02T08:46:32;13.68;;;10.95;;
25419;SDS011;13354;48.174;11.566;2024-03-02T08:48:58;15.45;;;10.95;;
25419;SDS011;13354;48.174;11.566;2024-03-02T08:51:23;15.93;;;11.85;;
25419;SDS011;13354;48.174;11.566;2024-03-02T08:53:48;15.43;;;11.40;;
25419;SDS011;13354;48.174;11.566;2024-03-02T08:56:14;14.05;;;11.50;;
25419;SDS011;13354;48.174;11.566;2024-03-02T08:58:40;16.33;;;12.98;;
25419;SDS011;13354;48.174;11.566;2024-03-02T09:01:06;17.00;;;12.05;;
25419;SDS011;13354;48.174;11.566;2024-03-02T09:03:33;14.02;;;11.85;;
25419;SDS011;13354;48.174;11.566;2024-03-02T09:05:59;18.17;;;11.70;;
25419;SDS011;13354;48.174;11.566;2024-03-02T09:08:24;15.13;;;11.77;;
25419;SDS011;13354;48.174;11.566;2024-03-02T09:10:49;13.65;;;11.65;;
25419;SDS011;13354;48.174;11.566;2024-03-02T09:13:15;13.27;;;11.15;;
25419;SDS011;13354;48.174;11.566;2024-03-02T09:15:40;13.30;;;11.35;;
25419;SDS011;13354;48.174;11.566;2024-03-02T09:18:06;13.85;;;10.88;;
25419;SDS011;13354;48.174;11.566;2024-03-02T09:20:31;13.65;;;11.07;;
25419;SDS011;13354;48.174;11.566;2024-03-02T09:22:57;12.20;;;10.82;;
25419;SDS011;13354;48.174;11.566;2024-03-02T09:25:22;15.57;;;12.23;;
25419;SDS011;13354;48.174;11.566;2024-03-02T09:27:47;14.95;;;12.23;;
25419;SDS011;13354;48.174;11.566;2024-03-02T09:30:13;15.27;;;12.23;;
25419;SDS011;13354;48.174;11.566;2024-03-02T09:32:39;15.35;;;11.90;;
25419;SDS011;13354;48.174;11.566;2024-03-02T09:35:04;14.93;;;11.98;;
25419;SDS011;13354;48.174;11.566;2024-03-02T09:37:30;14.18;;;11.73;;
25419;SDS011;13354;48.174;11.566;2024-03-02T09:39:56;13.88;;;11.43;;
25419;SDS011;13354;48.174;11.566;2024-03-02T09:42:21;17.63;;;11.85;;
25419;SDS011;13354;48.174;11.566;2024-03-02T09:44:47;15.65;;;11.98;;
25419;SDS011;13354;48.174;11.566;2024-03-02T09:47:13;14.57;;;11.38;;
25419;SDS011;13354;48.174;11.566;2024-03-02T09:49:38;14.57;;;12.02;;
25419;SDS011;13354;48.174;11.566;2024-03-02T09:52:05;10.95;;;8.57;;
25419;SDS011;13354;48.174;11.566;2024-03-02T09:54:31;12.05;;;9.00;;
25419;SDS011;13354;48.174;11.566;2024-03-02T09:56:57;9.50;;;8.40;;
25419;SDS011;13354;48.174;11.566;2024-03-02T09:59:22;9.82;;;7.95;;
25419;SDS011;13354;48.174;11.566;2024-03-02T10:02:01;8.50;;;6.70;;
25419;SDS011;13354;48.174;11.566;2024-03-02T10:04:28;9.75;;;7.15;;
25419;SDS011;13354;48.174;11.566;2024-03-02T10:07:13;12.57;;;9.10;;
25419;SDS011;13354;48.174;11.566;2024-03-02T10:09:40;11.35;;;8.88;;
25419;SDS011;13354;48.174;11.566;2024-03-02T10:12:07;13.00;;;9.57;;
25419;SDS011;13354;48.174;11.566;2024-03-02T10:14:34;10.55;;;8.93;;
25419;SDS011;13354;48.174;11.566;2024-03-02T10:17:03;12.63;;;8.95;;
25419;SDS011;13354;48.174;11.566;2024-03-02T10:19:33;13.13;;;9.27;;
25419;SDS011;13354;48.174;11.566;2024-03-02T10:22:05;11.77;;;9.02;;
25419;SDS011;13354;48.174;11.566;2024-03-02T10:24:43;11.77;;;8.68;;
25419;SDS011;13354;48.174;11.566;2024-03-02T10:27:10;10.43;;;7.40;;
25419;SDS011;13354;48.174;11.566;2024-03-02T10:29:41;11.07;;;7.93;;
25419;SDS011;13354;48.174;11.566;2024-03-02T10:32:10;11.88;;;8.13;;
25419;SDS011;13354;48.174;11.566;2024-03-02T10:34:36;12.07;;;9.30;;
25419;SDS011;13354;48.174;11.566;2024-03-02T10:37:02;12.73;;;9.50;;
25419;SDS011;13354;48.174;11.566;2024-03-02T10:39:28;11.20;;;8.07;;
25419;SDS011;13354;48.174;11.566;2024-03-02T10:41:55;12.38;;;9.70;;
25419;SDS011;13354;48.174;11.566;2024-03-02T10:44:20;11.75;;;9.15;;
25419;SDS011;13354;48.174;11.566;2024-03-02T10:46:47;12.75;;;9.93;;
25419;SDS011;13354;48.174;11.566;2024-03-02T10:49:14;14.60;;;9.88;;
25419;SDS011;13354;48.174;11.566;2024-03-02T10:51:40;13.93;;;8.98;;
25419;SDS011;13354;48.174;11.566;2024-03-02T10:54:05;12.65;;;8.88;;
25419;SDS011;13354;48.174;11.566;2024-03-02T10:56:32;13.27;;;8.90;;
25419;SDS011;13354;48.174;11.566;2024-03-02T10:59:03;10.00;;;7.82;;
25419;SDS011;13354;48.174;11.566;2024-03-02T11:01:38;10.02;;;7.43;;
25419;SDS011;13354;48.174;11.566;2024-03-02T11:04:04;12.32;;;8.70;;
25419;SDS011;13354;48.174;11.566;2024-03-02T11:06:33;12.43;;;9.13;;
25419;SDS011;13354;48.174;11.566;2024-03-02T11:09:03;14.38;;;8.85;;
25419;SDS011;13354;48.174;11.566;2024-03-02T11:11:33;13.00;;;10.13;;
25419;SDS011;13354;48.174;11.566;2024-03-02T11:14:02;12.80;;;9.43;;
25419;SDS011;13354;48.174;11.566;2024-03-02T11:19:06;12.45;;;9.43;;
25419;SDS011;13354;48.174;11.566;2024-03-02T11:21:34;11.38;;;9.18;;
25419;SDS011;13354;48.174;11.566;2024-03-02T11:24:08;13.52;;;9.57;;
25419;SDS011;13354;48.174;11.566;2024-03-02T11:26:46;12.70;;;9.50;;
25419;SDS011;13354;48.174;11.566;2024-03-02T11:29:36;14.00;;;10.68;;
25419;SDS011;13354;48.174;11.566;2024-03-02T11:32:03;13.23;;;9.07;;
25419;SDS011;13354;48.174;11.566;2024-03-02T11:34:33;13.95;;;9.93;;
25419;SDS011;13354;48.174;11.566;2024-03-02T11:37:03;15.00;;;10.40;;
25419;SDS011;13354;48.174;11.566;2024-03-02T11:39:29;16.55;;;12.27;;
25419;SDS011;13354;48.174;11.566;2024-03-02T11:41:55;19.20;;;13.00;;
25419;SDS011;13354;48.174;11.566;2024-03-02T11:44:22;15.60;;;11.80;;
25419;SDS011;13354;48.174;11.566;2024-03-02T11:47:00;18.92;;;13.73;;
25419;SDS011;13354;48.174;11.566;2024-03-02T11:49:44;18.83;;;13.95;;
25419;SDS011;13354;48.174;11.566;2024-03-02T11:52:14;19.15;;;13.82;;
25419;SDS011;13354;48.174;11.566;2024-03-02T11:54:42;18.95;;;13.45;;
25419;SDS011;13354;48.174;11.566;2024-03-02T11:57:11;18.88;;;14.52;;
25419;SDS011;13354;48.174;11.566;2024-03-02T11:59:38;18.17;;;13.98;;
25419;SDS011;13354;48.174;11.566;2024-03-02T12:02:04;19.95;;;14.25;;
25419;SDS011;13354;48.174;11.566;2024-03-02T12:04:30;18.48;;;14.13;;
25419;SDS011;13354;48.174;11.566;2024-03-02T12:09:28;18.45;;;13.18;;
25419;SDS011;13354;48.174;11.566;2024-03-02T12:12:06;20.15;;;13.70;;
25419;SDS011;13354;48.174;11.566;2024-03-02T12:14:36;19.70;;;13.68;;
25419;SDS011;13354;48.174;11.566;2024-03-02T12:17:02;19.10;;;12.52;;
25419;SDS011;13354;48.174;11.566;2024-03-02T12:19:28;19.45;;;13.05;;
25419;SDS011;13354;48.174;11.566;2024-03-02T12:21:57;18.45;;;13.57;;
25419;SDS011;13354;48.174;11.566;2024-03-02T12:24:24;16.60;;;12.98;;
25419;SDS011;13354;48.174;11.566;2024-03-02T12:26:51;17.13;;;13.07;;
25419;SDS011;13354;48.174;11.566;2024-03-02T12:29:21;17.52;;;12.65;;
25419;SDS011;13354;48.174;11.566;2024-03-02T12:31:48;17.48;;;12.45;;
25419;SDS011;13354;48.174;11.566;2024-03-02T12:34:14;17.58;;;11.73;;
25419;SDS011;13354;48.174;11.566;2024-03-02T12:36:41;17.10;;;10.85;;
25419;SDS011;13354;48.174;11.566;2024-03-02T12:39:07;17.70;;;11.80;;
25419;SDS011;13354;48.174;11.566;2024-03-02T12:41:35;17.50;;;12.85;;
25419;SDS011;13354;48.174;11.566;2024-03-02T12:44:02;15.63;;;12.50;;
25419;SDS011;13354;48.174;11.566;2024-03-02T12:46:28;15.38;;;12.32;;
25419;SDS011;13354;48.174;11.566;2024-03-02T12:48:53;19.33;;;12.32;;
25419;SDS011;13354;48.174;11.566;2024-03-02T12:51:19;15.80;;;12.00;;
25419;SDS011;13354;48.174;11.566;2024-03-02T12:53:44;17.83;;;12.25;;
25419;SDS011;13354;48.174;11.566;2024-03-02T12:56:09;14.88;;;11.43;;
25419;SDS011;13354;48.174;11.566;2024-03-02T12:58:39;16.40;;;12.63;;
25419;SDS011;13354;48.174;11.566;2024-03-02T13:01:09;15.70;;;12.25;;
25419;SDS011;13354;48.174;11.566;2024-03-02T13:03:38;16.88;;;11.68;;
25419;SDS011;13354;48.174;11.566;2024-03-02T13:06:04;15.50;;;12.05;;
25419;SDS011;13354;48.174;11.566;2024-03-02T13:08:31;16.63;;;12.18;;
25419;SDS011;13354;48.174;11.566;2024-03-02T13:10:57;16.15;;;12.73;;
25419;SDS011;13354;48.174;11.566;2024-03-02T13:13:23;18.17;;;12.88;;
25419;SDS011;13354;48.174;11.566;2024-03-02T13:15:48;17.35;;;12.45;;
25419;SDS011;13354;48.174;11.566;2024-03-02T13:18:13;20.45;;;13.18;;
25419;SDS011;13354;48.174;11.566;2024-03-02T13:20:39;17.33;;;12.38;;
25419;SDS011;13354;48.174;11.566;2024-03-02T13:23:05;17.13;;;13.02;;
25419;SDS011;13354;48.174;11.566;2024-03-02T13:25:30;16.17;;;12.93;;
25419;SDS011;13354;48.174;11.566;2024-03-02T13:27:56;16.90;;;13.27;;
25419;SDS011;13354;48.174;11.566;2024-03-02T13:30:23;16.17;;;11.93;;
25419;SDS011;13354;48.174;11.566;2024-03-02T13:32:48;16.92;;;12.57;;
25419;SDS011;13354;48.174;11.566;2024-03-02T13:35:14;16.35;;;12.23;;
25419;SDS011;13354;48.174;11.566;2024-03-02T13:37:39;16.48;;;12.82;;
25419;SDS011;13354;48.174;11.566;2024-03-02T13:40:04;17.92;;;12.55;;
25419;SDS011;13354;48.174;11.566;2024-03-02T13:42:30;15.02;;;11.60;;
25419;SDS011;13354;48.174;11.566;2024-03-02T13:44:56;17.33;;;12.57;;
25419;SDS011;13354;48.174;11.566;2024-03-02T13:47:22;15.30;;;11.98;;
25419;SDS011;13354;48.174;11.566;2024-03-02T13:49:47;16.13;;;12.85;;
25419;SDS011;13354;48.174;11.566;2024-03-02T13:52:14;15.85;;;13.15;;
25419;SDS011;13354;48.174;11.566;2024-03-02T13:54:40;19.17;;;14.88;;
25419;SDS011;13354;48.174;11.566;2024-03-02T13:57:07;18.75;;;14.45;;
25419;SDS011;13354;48.174;11.566;2024-03-02T13:59:33;18.02;;;14.45;;
25419;SDS011;13354;48.174;11.566;2024-03-02T14:02:01;18.20;;;14.20;;
25419;SDS011;13354;48.174;11.566;2024-03-02T14:04:29;18.48;;;13.73;;
25419;SDS011;13354;48.174;11.566;2024-03-02T14:07:02;17.48;;;12.82;;
25419;SDS011;13354;48.174;11.566;2024-03-02T14:09:27;16.83;;;11.90;;
25419;SDS011;13354;48.174;11.566;2024-03-02T14:11:53;14.25;;;11.20;;
25419;SDS011;13354;48.174;11.566;2024-03-02T14:14:19;16.05;;;12.07;;
25419;SDS011;13354;48.174;11.566;2024-03-02T14:16:45;14.63;;;12.18;;
25419;SDS011;13354;48.174;11.566;2024-03-02T14:19:11;16.65;;;13.13;;